Hackettstown, NJ

7:21 AM EDT on May 05, 2015 (GMT -0400)
KNJINDEP2 | | Change Station
CLOSE
Current Station
Personal Weather Station
Location: Independence Township, NJ
Elevation: 1036 ft
Nearby Weather Stations

Elev 1036 ft 40.85 °N, 74.88 °W | Updated 1 minute ago

Partly Cloudy
Partly Cloudy
63.1 °F
Feels Like 63.1 °F
N
0.0
Wind Variable Wind from SSE
Gusts 0.0 mph

Today
High -- | Low -- °F
--% Chance of Precip.
Yesterday
High -- | Low -- °F
Precip. -- in
5:53 AM 7:59 PM
Full, 98% visible
Pressure 30.17 in
Visibility 9.0 miles
Clouds Clear
Dew Point 52 °F
Humidity 68%
Rainfall 0.00 in
Snow Depth Not available.
UV 1 out of 12
Pollen 9.20 out of 12
Air Quality Not available.
Flu Activity Local Activity
METAR KSMQ 051053Z AUTO 00000KT 9SM CLR 12/09 A3017 RMK AO2 SLP215 T01170089 TSNO

More Conditions Fewer Conditions

Pressure 30.17 in
Visibility 9.0 miles
Clouds Clear
Dew Point 52 °F
Humidity 68%
Rainfall 0.00 in
Snow Depth Not available.
UV 1 out of 12
Pollen 9.20 out of 12
Air Quality Not available.
Flu Activity Local Activity
METAR KSMQ 051053Z AUTO 00000KT 9SM CLR 12/09 A3017 RMK AO2 SLP215 T01170089 TSNO

More Conditions Fewer Conditions

Nepal has a long way to go to dig out and rebuild from a devastating earthquake. We have teamed up with several charities and organizations to make contributing to the relief effort as easy as possible.
How you can help: Portlight Strategies | Red Cross

10-Day Weather Forecast

Almanac

Astronomy

May. 05, 2015 Rise Set
Actual Time
Civil Twilight
Nautical Twilight
Astronomical Twilight
Moon
Length of Visible Light
Length of Day
Tomorrow will be .
, % of the Moon is Illuminated

Today's Extremes

State Highs State Lows

Community

WunderPhotos

Upload Photos

1,818,831 photos uploaded!

WunderBlogs® & News

Nearby

Air Quality

  Air Quality AQ Index Pollutant
Not available.

Snow Depth

Station Depth Elevation

Earthquake Activity

City Distance Mag. Time & Date
Minimum magnitude displayed is 2.5.

Coastal Water Temperatures

Place Temperature

Stations

Nearby Weather Stations

Station Location Temp. Windchill Dew Point Humidity Wind Precip. Elev Updated Type